Airfield :
LOGIN :

Register | Disclaimer

   EN    FR    IT 

 










Legend :    VFR   Marginal VFR   IFR   Intensive IFR   Very Intensive IFR
Visi :
Ceiling :
>= 8 km
>= 3000ft
5 to 8 km
1000 to 3000 ft
1500m to 5 km
500 to 1000 ft
800 to 1500m
200 to 500 ft
< 800m
< 200 ft
Symbols :   Thunderstorms  Fog  Heavy snow  Heavy precipitations  Wind > 20 kt
SIGMETs :     Misc.  Thunderstorms  Icing  Turbulence  Mountain Waves  Volcanic Ashes






- Airport Elevation : 218 ft
- IATA code : LBG


LFPB - Paris / Le Bourget

CURRENT METAR :
  • 190830Z AUTO 03004KT 350V060 9999 FEW017/// BKN027/// BKN058/// ///TCU 20/17 Q1014 TEMPO 4000 -SHRA BECMG BKN016

EXPIRED METARs :
  • 190800Z AUTO 01005KT 330V050 9999 FEW026/// BKN130/// BKN150/// ///TCU 20/16 Q1014 TEMPO 4000 -SHRA
  • 190730Z AUTO VRB02KT 9999 FEW011 BKN018 BKN027 19/16 Q1015 TEMPO 4000 -SHRA BKN020TCU
  • 190700Z AUTO 03004KT 9999 FEW019 BKN150 OVC200 19/16 Q1015 TEMPO BKN012
  • 190630Z AUTO 36003KT 310V030 9999 FEW009 BKN020 BKN028 19/16 Q1015 TEMPO BKN012
  • 190600Z AUTO VRB02KT 9999 FEW009 BKN021 BKN030 18/17 Q1015 TEMPO BKN012

TAF AMD TAF LFPB
Valid from the 19 at 07:00 until the 20 at 06:00 UTC


190705Z 1907/2006 VRB03KT 9999 BKN016
PROB40
TEMPO 1908/1910 4000 -SHRA BKN020TCU
TEMPO 1914/1924 SCT050TCU
PROB40
TEMPO 1916/1918 4000 TSRA SCT040CB
TEMPO 1919/1921 VRB15G35KT 1500 TSGRRA BKN030CB
PROB40
TEMPO 1922/1924 20015G25KT 4000 TSRA SCT030CB
PROB30
TEMPO 2002/2006 BKN012
ATIS : +33 1 48 62 43 92



MET'MAP, your aeronautical weather chart ! - Copyright ORBIFLY December 2007 - Disclaimer

ORBIFLY MET'MAP TEAM :

Programming & Development : Alexandra Zaïnal
Concept & original design : Baudouin d'Aumeries
Assistance for programming : Marc-Olivier Méhu
Technical & hardware support : Manuel Goepfert

Contact : metmap@orbifly.com




SOURCES & CREDITS :

   NOAA